Knutsford, United Kingdom
Current Conditions -  °F | °C
As of 6:50 AM on Friday 28 Nov 2014 (Local Time) from EGCC Reporting Station
Broken Clouds Broken Clouds  
Wind Chill: 46°   Ceiling: 2100
Heat Index: 48°   Visibility: 4mi
Dew Point: 48°   Wind: 5mph
Humidity: 100%   Direction: 70°ENE
Pressure: 29.62"   Gusts: NA
Location:  53.3°N, 2.37°W
Report Text: EGCC 280650Z 07004KT 030V130 6000 SCT011 SCT015 BKN021 09/09 Q1003 NOSIG
Loading
Personal Weather Stations






























Interactive Weather Map New forecast layout! Learn more

10-Day Weather Forecast

Advertisements
Track Severe Weather on mobile